KCGF/CGF METAR and TAF weather

Enter ICAO airport designator
Station Type Date Time Source
KCGF METAR 2018/10/21 01:45 UTC NOAA

KCGF 210145Z 30015G25KT 10SM VCSH OVC027 06/02 A2984


Station Type Date Time Source
KCGF Decoded METAR 2018/10/21 01:45 UTC NOAA

Cleveland / Cuyahoga, OH, United States (KCGF) 41-34N 081-29W
Oct 20, 2018 - 09:45 PM EDT / 2018.10.21 0145 UTC
Wind: from the WNW (300 degrees) at 17 MPH (15 KT) gusting to 29 MPH (25 KT):0
Visibility: 10 mile(s):0
Sky conditions: overcast
Weather: showers in the vicinity
Temperature: 42 F (6 C)
Dew Point: 35 F (2 C)
Relative Humidity: 75%
Pressure (altimeter): 29.84 in. Hg (1010 hPa)
ob: KCGF 210145Z 30015G25KT 10SM VCSH OVC027 06/02 A2984
cycle: 2

Station Type Date Time Source
KCGF TAF 2016/07/19 12:36 UTC NOAA

TAF KCGF 191136Z 1912/2012 VRB05KT P6SM SCT080
FM191400 33008KT P6SM SCT040
FM191900 35008KT P6SM SCT060
FM200000 04003KT P6SM SCT080
FM200700 14003KT P6SM SKC


Example: see airport list